createdAt,value
2017-06-25T00:01:14.082Z,4.37
2017-06-25T00:03:41.704Z,4.83
2017-06-25T00:06:09.171Z,5.20
2017-06-25T00:08:36.665Z,5.57
2017-06-25T00:11:04.894Z,5.80
2017-06-25T00:13:32.390Z,5.07
2017-06-25T00:15:59.882Z,4.40
2017-06-25T00:18:27.421Z,5.20
2017-06-25T00:20:55.663Z,5.73
2017-06-25T00:23:23.240Z,5.77
2017-06-25T00:25:50.799Z,5.37
2017-06-25T00:28:19.068Z,5.83
2017-06-25T00:30:46.550Z,5.80
2017-06-25T00:33:14.786Z,6.63
2017-06-25T00:35:42.265Z,5.90
2017-06-25T00:38:09.710Z,6.20
2017-06-25T00:40:37.171Z,7.17
2017-06-25T00:43:04.730Z,6.17
2017-06-25T00:45:32.206Z,7.17
2017-06-25T00:48:00.495Z,5.90
2017-06-25T00:50:28.018Z,6.30
2017-06-25T00:53:01.253Z,6.70
2017-06-25T00:55:28.774Z,6.70
2017-06-25T00:57:56.334Z,6.73
2017-06-25T01:00:24.574Z,6.40
2017-06-25T01:02:52.050Z,7.30
2017-06-25T01:05:19.552Z,7.70
2017-06-25T01:07:47.021Z,8.30
2017-06-25T01:10:14.507Z,7.60
2017-06-25T01:12:41.970Z,7.10
2017-06-25T01:15:09.439Z,8.53
2017-06-25T01:17:36.966Z,7.30
2017-06-25T01:20:04.463Z,7.97
2017-06-25T01:22:32.026Z,8.03
2017-06-25T01:24:59.524Z,7.33
2017-06-25T01:27:27.038Z,8.47
2017-06-25T01:29:56.374Z,8.23
2017-06-25T01:32:23.850Z,10.00
2017-06-25T01:34:51.306Z,8.90
2017-06-25T01:37:18.806Z,8.00
2017-06-25T01:39:46.290Z,7.73
2017-06-25T01:42:14.591Z,10.80
2017-06-25T01:44:42.095Z,8.83
2017-06-25T01:47:09.654Z,9.10
2017-06-25T01:49:37.218Z,9.83
2017-06-25T01:52:04.686Z,9.43
2017-06-25T01:54:32.928Z,9.53
2017-06-25T01:57:00.402Z,8.53
2017-06-25T01:59:27.858Z,10.53
2017-06-25T02:01:55.334Z,9.80
2017-06-25T02:04:23.599Z,9.63
2017-06-25T02:06:51.823Z,10.47
2017-06-25T02:09:20.325Z,10.07
2017-06-25T02:11:47.801Z,8.97
2017-06-25T02:14:15.257Z,8.43
2017-06-25T02:16:42.841Z,11.53
2017-06-25T02:19:10.326Z,11.00
2017-06-25T02:21:37.834Z,11.47
2017-06-25T02:24:05.397Z,10.53
2017-06-25T02:26:32.850Z,9.07
2017-06-25T02:29:00.357Z,11.30
2017-06-25T02:31:27.831Z,11.33
2017-06-25T02:33:55.303Z,9.67
2017-06-25T02:36:22.774Z,11.37
2017-06-25T02:38:50.331Z,9.80
2017-06-25T02:41:17.905Z,10.77
2017-06-25T02:43:46.136Z,10.57
2017-06-25T02:46:13.627Z,9.90
2017-06-25T02:48:41.191Z,10.87
2017-06-25T02:51:08.654Z,10.67
2017-06-25T02:53:36.908Z,10.03
2017-06-25T02:56:04.366Z,10.47
2017-06-25T02:58:31.827Z,11.30
2017-06-25T03:00:59.310Z,10.23
2017-06-25T03:03:27.526Z,9.53
2017-06-25T03:05:54.982Z,10.10
2017-06-25T03:08:22.604Z,9.73
2017-06-25T03:10:50.054Z,8.00
2017-06-25T03:13:17.514Z,9.33
2017-06-25T03:15:45.002Z,8.70
2017-06-25T03:18:12.498Z,7.13
2017-06-25T03:20:40.013Z,7.50
2017-06-25T03:23:07.519Z,7.03
2017-06-25T03:25:35.000Z,7.03
2017-06-25T03:28:03.254Z,8.40
2017-06-25T03:30:30.807Z,8.03
2017-06-25T03:32:58.263Z,7.60
2017-06-25T03:35:25.719Z,7.53
2017-06-25T03:37:53.198Z,7.70
2017-06-25T03:40:21.430Z,7.37
2017-06-25T03:42:48.906Z,8.97
2017-06-25T03:45:16.394Z,8.47
2017-06-25T03:47:43.887Z,8.50
2017-06-25T03:50:11.339Z,9.13
2017-06-25T03:52:38.838Z,9.13
2017-06-25T03:55:06.302Z,7.90
2017-06-25T03:57:33.758Z,9.20
2017-06-25T04:00:01.314Z,8.37
2017-06-25T04:02:28.869Z,8.47
2017-06-25T04:04:56.326Z,8.00
2017-06-25T04:07:23.826Z,9.23
2017-06-25T04:09:51.297Z,7.00
2017-06-25T04:12:18.806Z,8.17
2017-06-25T04:14:47.079Z,8.80
2017-06-25T04:17:15.304Z,8.90
2017-06-25T04:19:42.823Z,8.07
2017-06-25T04:22:11.066Z,8.73
2017-06-25T04:24:38.588Z,7.70
2017-06-25T04:27:06.092Z,9.67
2017-06-25T04:29:33.570Z,10.27
2017-06-25T04:32:01.822Z,9.20
2017-06-25T04:34:29.382Z,9.60
2017-06-25T04:36:56.932Z,9.00
2017-06-25T04:39:24.390Z,10.77
2017-06-25T04:41:51.854Z,8.47
2017-06-25T04:44:19.336Z,9.30
2017-06-25T04:46:46.870Z,9.40
2017-06-25T04:49:14.426Z,9.90
2017-06-25T04:51:41.893Z,9.73
2017-06-25T04:54:10.131Z,8.70
2017-06-25T04:56:37.592Z,8.10
2017-06-25T04:59:05.167Z,7.97
2017-06-25T05:01:32.734Z,9.70
2017-06-25T05:04:00.298Z,8.40
2017-06-25T05:06:27.851Z,8.37
2017-06-25T05:08:55.310Z,9.20
2017-06-25T05:11:22.775Z,8.23
2017-06-25T05:13:51.030Z,8.17
2017-06-25T05:16:19.022Z,7.30
2017-06-25T05:18:47.246Z,7.30
2017-06-25T05:21:14.739Z,7.50
2017-06-25T05:23:42.198Z,7.37
2017-06-25T05:26:09.662Z,7.80
2017-06-25T05:28:38.926Z,7.10
2017-06-25T05:31:06.397Z,6.30
2017-06-25T05:33:33.847Z,6.80
2017-06-25T05:36:01.434Z,7.30
2017-06-25T05:38:29.656Z,5.50
2017-06-25T05:40:57.162Z,6.07
2017-06-25T05:43:25.411Z,6.10
2017-06-25T05:45:52.878Z,6.80
2017-06-25T05:48:20.446Z,7.10
2017-06-25T05:50:47.937Z,6.37
2017-06-25T05:53:15.518Z,6.90
2017-06-25T05:55:42.972Z,6.57
2017-06-25T05:58:10.523Z,6.70
2017-06-25T06:00:38.046Z,10.53
2017-06-25T06:03:06.291Z,8.57
2017-06-25T06:05:33.882Z,9.73
2017-06-25T06:08:01.428Z,7.77
2017-06-25T06:10:28.902Z,10.30
2017-06-25T06:12:57.147Z,8.40
2017-06-25T06:15:24.614Z,8.77
2017-06-25T06:17:52.066Z,7.00
2017-06-25T06:20:19.584Z,7.47
2017-06-25T06:22:47.130Z,7.73
2017-06-25T06:25:14.658Z,7.23
2017-06-25T06:27:43.957Z,7.57
2017-06-25T06:30:12.183Z,6.50
2017-06-25T06:32:39.686Z,5.70
2017-06-25T06:35:07.994Z,5.77
2017-06-25T06:37:35.522Z,5.90
2017-06-25T06:40:03.791Z,5.20
2017-06-25T06:42:31.358Z,5.60
2017-06-25T06:44:58.893Z,5.30
2017-06-25T06:47:26.386Z,4.97
2017-06-25T06:49:54.654Z,5.77
2017-06-25T06:52:22.892Z,5.57
2017-06-25T06:54:50.342Z,4.77
2017-06-25T06:57:17.844Z,4.80
2017-06-25T06:59:45.354Z,4.60
2017-06-25T07:02:12.801Z,4.37
2017-06-25T07:04:40.271Z,4.10
2017-06-25T07:07:07.730Z,4.73
2017-06-25T07:09:35.221Z,4.27
2017-06-25T07:12:02.782Z,4.30
2017-06-25T07:14:31.008Z,3.97
2017-06-25T07:16:58.508Z,4.40
2017-06-25T07:19:26.082Z,3.70
2017-06-25T07:21:54.330Z,4.30
2017-06-25T07:24:21.794Z,3.97
2017-06-25T07:26:49.274Z,3.97
2017-06-25T07:29:17.546Z,3.70
2017-06-25T07:31:45.807Z,4.30
2017-06-25T07:34:14.082Z,3.90
2017-06-25T07:36:41.547Z,4.20
2017-06-25T07:39:09.770Z,3.03
2017-06-25T07:41:37.280Z,3.40
2017-06-25T07:44:05.527Z,3.23
2017-06-25T07:46:33.125Z,3.80
2017-06-25T07:49:01.369Z,4.00
2017-06-25T07:51:28.915Z,3.57
2017-06-25T07:53:56.396Z,3.60
2017-06-25T07:56:24.674Z,4.20
2017-06-25T07:58:52.224Z,3.50
2017-06-25T08:01:19.682Z,3.60
2017-06-25T08:03:47.156Z,3.53
2017-06-25T08:06:15.386Z,3.93
2017-06-25T08:08:42.838Z,4.07
2017-06-25T08:11:10.318Z,4.47
2017-06-25T08:13:37.774Z,3.93
2017-06-25T08:16:05.246Z,3.83
2017-06-25T08:18:32.716Z,3.60
2017-06-25T08:21:00.948Z,4.27
2017-06-25T08:23:28.407Z,4.30
2017-06-25T08:25:56.011Z,4.70
2017-06-25T08:28:23.563Z,4.00
2017-06-25T08:30:51.827Z,4.60
2017-06-25T08:33:20.070Z,3.77
2017-06-25T08:35:47.530Z,4.80
2017-06-25T08:38:14.986Z,3.93
2017-06-25T08:40:42.491Z,4.30
2017-06-25T08:43:10.022Z,4.63
2017-06-25T08:45:37.681Z,4.90
2017-06-25T08:48:05.248Z,4.17
2017-06-25T08:50:33.474Z,4.27
2017-06-25T08:53:00.986Z,4.40
2017-06-25T08:55:29.238Z,3.93
2017-06-25T08:57:56.726Z,4.60
2017-06-25T09:00:24.974Z,4.50
2017-06-25T09:02:52.451Z,4.23
2017-06-25T09:05:20.674Z,4.37
2017-06-25T09:07:48.166Z,4.23
2017-06-25T09:10:15.642Z,5.17
2017-06-25T09:12:43.898Z,4.40
2017-06-25T09:15:11.354Z,4.03
2017-06-25T09:17:38.834Z,4.53
2017-06-25T09:20:07.058Z,5.07
2017-06-25T09:22:34.554Z,4.00
2017-06-25T09:25:02.822Z,4.10
2017-06-25T09:27:30.294Z,4.00
2017-06-25T09:29:58.542Z,3.67
2017-06-25T09:32:26.005Z,5.03
2017-06-25T09:34:53.467Z,4.10
2017-06-25T09:37:20.919Z,3.73
2017-06-25T09:39:48.386Z,4.20
2017-06-25T09:42:16.650Z,4.30
2017-06-25T09:44:44.118Z,4.73
2017-06-25T09:47:12.410Z,3.50
2017-06-25T09:49:40.630Z,3.80
2017-06-25T09:52:08.114Z,3.50
2017-06-25T09:54:35.654Z,3.37
2017-06-25T09:57:03.115Z,3.10
2017-06-25T09:59:30.590Z,4.10
2017-06-25T10:01:58.064Z,4.00
2017-06-25T10:04:26.338Z,3.83
2017-06-25T10:06:54.586Z,4.40
2017-06-25T10:09:22.190Z,3.07
2017-06-25T10:11:49.646Z,3.20
2017-06-25T10:14:17.107Z,3.10
2017-06-25T10:16:44.622Z,2.70
2017-06-25T10:19:12.083Z,3.10
2017-06-25T10:21:39.565Z,2.90
2017-06-25T10:24:07.822Z,2.10
2017-06-25T10:26:36.076Z,2.67
2017-06-25T10:29:03.530Z,2.33
2017-06-25T10:31:31.007Z,2.93
2017-06-25T10:33:58.569Z,2.93
2017-06-25T10:36:26.064Z,2.53
2017-06-25T10:38:53.566Z,2.80
2017-06-25T10:41:22.046Z,2.40
2017-06-25T10:43:49.503Z,2.80
2017-06-25T10:46:17.198Z,2.37
2017-06-25T10:48:44.733Z,2.00
2017-06-25T10:51:12.194Z,2.70
2017-06-25T10:53:40.478Z,2.40
2017-06-25T10:56:08.759Z,3.10
2017-06-25T10:58:36.301Z,2.40
2017-06-25T11:01:03.938Z,3.07
2017-06-25T11:03:31.401Z,2.70
2017-06-25T11:05:58.883Z,2.67
2017-06-25T11:08:26.434Z,3.30
2017-06-25T11:10:53.918Z,2.50
2017-06-25T11:13:21.457Z,2.80
2017-06-25T11:15:49.818Z,2.60
2017-06-25T11:18:17.286Z,2.70
2017-06-25T11:20:44.846Z,2.60
2017-06-25T11:23:12.718Z,2.87
2017-06-25T11:25:40.266Z,2.33
2017-06-25T11:28:07.726Z,2.97
2017-06-25T11:30:35.290Z,2.33
2017-06-25T11:33:03.514Z,2.90
2017-06-25T11:35:31.018Z,2.70
2017-06-25T11:37:59.314Z,3.20
2017-06-25T11:40:26.846Z,2.37
2017-06-25T11:42:54.331Z,3.50
2017-06-25T11:45:21.901Z,2.83
2017-06-25T11:47:49.422Z,3.37
2017-06-25T11:50:16.982Z,3.10
2017-06-25T11:52:44.492Z,3.30
2017-06-25T11:55:11.943Z,3.30
2017-06-25T11:57:39.506Z,3.03
2017-06-25T12:00:07.018Z,3.03
2017-06-25T12:02:35.252Z,2.53
2017-06-25T12:05:02.747Z,3.30
2017-06-25T12:07:30.296Z,2.90
2017-06-25T12:09:57.768Z,3.30
2017-06-25T12:12:26.032Z,4.00
2017-06-25T12:14:54.323Z,3.67
2017-06-25T12:17:22.601Z,2.80
2017-06-25T12:19:50.814Z,4.00
2017-06-25T12:22:18.338Z,2.83
2017-06-25T12:24:46.566Z,3.87
2017-06-25T12:27:14.058Z,3.80
2017-06-25T12:29:41.598Z,3.53
2017-06-25T12:32:09.174Z,3.50
2017-06-25T12:34:36.657Z,4.03
2017-06-25T12:37:04.196Z,4.40
2017-06-25T12:39:32.470Z,3.27
2017-06-25T12:41:59.961Z,4.20
2017-06-25T12:44:27.489Z,4.50
2017-06-25T12:46:55.750Z,4.70
2017-06-25T12:49:24.022Z,4.43
2017-06-25T12:51:51.518Z,4.57
2017-06-25T12:54:19.066Z,3.50
2017-06-25T12:56:47.316Z,4.50
2017-06-25T12:59:14.854Z,3.83
2017-06-25T13:01:42.307Z,4.37
2017-06-25T13:04:09.758Z,3.90
2017-06-25T13:06:37.262Z,3.90
2017-06-25T13:09:05.482Z,4.33
2017-06-25T13:11:32.939Z,4.20
2017-06-25T13:14:00.435Z,4.63
2017-06-25T13:16:28.699Z,4.43
2017-06-25T13:18:56.158Z,4.07
2017-06-25T13:21:23.650Z,3.83
2017-06-25T13:23:51.170Z,4.53
2017-06-25T13:26:18.630Z,3.63
2017-06-25T13:28:46.245Z,3.87
2017-06-25T13:31:13.760Z,4.53
2017-06-25T13:33:41.237Z,3.80
2017-06-25T13:36:08.780Z,4.73
2017-06-25T13:38:37.023Z,3.80
2017-06-25T13:41:04.525Z,4.67
2017-06-25T13:43:32.062Z,4.63
2017-06-25T13:46:00.295Z,4.27
2017-06-25T13:48:27.787Z,4.50
2017-06-25T13:50:55.341Z,4.50
2017-06-25T13:53:22.831Z,4.77
2017-06-25T13:55:50.363Z,3.80
2017-06-25T13:58:17.951Z,4.83
2017-06-25T14:00:45.398Z,5.10
2017-06-25T14:03:13.627Z,4.40
2017-06-25T14:05:41.163Z,4.80
2017-06-25T14:08:08.648Z,4.37
2017-06-25T14:10:36.390Z,4.90
2017-06-25T14:13:04.170Z,5.47
2017-06-25T14:15:31.635Z,4.80
2017-06-25T14:17:59.086Z,4.40
2017-06-25T14:20:26.567Z,4.27
2017-06-25T14:22:54.050Z,3.90
2017-06-25T14:25:21.494Z,4.73
2017-06-25T14:27:49.756Z,4.50
2017-06-25T14:30:17.306Z,4.80
2017-06-25T14:32:44.866Z,4.50
2017-06-25T14:35:12.459Z,4.90
2017-06-25T14:37:41.019Z,5.10
2017-06-25T14:40:10.921Z,4.70
2017-06-25T14:42:38.703Z,4.97
2017-06-25T14:45:06.971Z,4.50
2017-06-25T14:47:35.239Z,3.90
2017-06-25T14:50:02.968Z,4.83
2017-06-25T14:52:30.467Z,4.50
2017-06-25T14:54:58.698Z,4.60
2017-06-25T14:57:26.175Z,4.77
2017-06-25T14:59:53.658Z,4.43
2017-06-25T15:02:21.918Z,5.00
2017-06-25T15:04:49.398Z,4.97
2017-06-25T15:07:16.863Z,4.93
2017-06-25T15:09:44.319Z,4.63
2017-06-25T15:12:11.912Z,4.60
2017-06-25T15:14:39.404Z,3.70
2017-06-25T15:17:06.862Z,4.10
2017-06-25T15:19:34.334Z,4.20
2017-06-25T15:22:02.618Z,4.20
2017-06-25T15:24:30.839Z,3.50
2017-06-25T15:26:58.580Z,3.83
2017-06-25T15:29:26.095Z,4.00
2017-06-25T15:31:53.561Z,3.50
2017-06-25T15:34:21.833Z,3.77
2017-06-25T15:36:49.337Z,4.60
2017-06-25T15:39:16.817Z,3.40
2017-06-25T15:41:44.330Z,4.43
2017-06-25T15:44:11.909Z,3.53
2017-06-25T15:46:39.371Z,4.00
2017-06-25T15:49:07.227Z,4.00
2017-06-25T15:51:34.723Z,4.50
2017-06-25T15:54:02.377Z,3.43
2017-06-25T15:56:29.963Z,3.80
2017-06-25T15:58:57.426Z,3.70
2017-06-25T16:01:25.005Z,3.60
2017-06-25T16:03:52.533Z,4.03
2017-06-25T16:06:20.033Z,3.13
2017-06-25T16:08:47.485Z,3.13
2017-06-25T16:11:14.960Z,3.90
2017-06-25T16:13:42.410Z,3.87
2017-06-25T16:16:09.915Z,2.80
2017-06-25T16:18:37.500Z,3.03
2017-06-25T16:21:05.748Z,3.23
2017-06-25T16:23:33.215Z,4.43
2017-06-25T16:26:01.468Z,3.80
2017-06-25T16:28:28.947Z,3.80
2017-06-25T16:30:57.170Z,3.30
2017-06-25T16:33:24.678Z,3.73
2017-06-25T16:35:52.950Z,3.53
2017-06-25T16:38:20.504Z,4.10
2017-06-25T16:40:48.270Z,3.27
2017-06-25T16:43:15.824Z,2.80
2017-06-25T16:45:43.285Z,3.40
2017-06-25T16:48:10.768Z,3.67
2017-06-25T16:50:38.355Z,3.20
2017-06-25T16:53:05.863Z,4.40
2017-06-25T16:55:33.347Z,3.67
2017-06-25T16:58:00.805Z,3.10
2017-06-25T17:00:28.385Z,3.83
2017-06-25T17:02:55.945Z,3.80
2017-06-25T17:05:23.413Z,3.20
2017-06-25T17:07:50.873Z,2.57
2017-06-25T17:10:18.660Z,3.50
2017-06-25T17:12:46.234Z,3.20
2017-06-25T17:15:14.515Z,3.50
2017-06-25T17:17:43.019Z,3.37
2017-06-25T17:20:10.476Z,3.50
2017-06-25T17:22:37.930Z,3.37
2017-06-25T17:25:05.410Z,2.20
2017-06-25T17:27:32.906Z,3.77
2017-06-25T17:30:00.382Z,3.17
2017-06-25T17:32:28.638Z,3.33
2017-06-25T17:34:56.190Z,3.03
2017-06-25T17:37:23.672Z,3.37
2017-06-25T17:39:51.900Z,2.70
2017-06-25T17:42:19.391Z,4.10
2017-06-25T17:44:46.843Z,3.57
2017-06-25T17:47:14.507Z,3.40
2017-06-25T17:49:42.037Z,2.80
2017-06-25T17:52:09.499Z,2.87
2017-06-25T17:54:36.958Z,3.03
2017-06-25T17:57:04.697Z,3.20
2017-06-25T17:59:32.195Z,3.20
2017-06-25T18:01:59.691Z,2.90
2017-06-25T18:04:27.233Z,3.13
2017-06-25T18:06:55.466Z,3.47
2017-06-25T18:09:22.981Z,2.93
2017-06-25T18:11:50.454Z,3.70
2017-06-25T18:14:17.964Z,3.73
2017-06-25T18:16:46.228Z,2.90
2017-06-25T18:19:13.714Z,3.10
2017-06-25T18:21:41.369Z,2.90
2017-06-25T18:24:09.738Z,3.13
2017-06-25T18:26:37.215Z,3.47
2017-06-25T18:29:04.676Z,3.03
2017-06-25T18:31:32.212Z,3.20
2017-06-25T18:34:00.470Z,2.73
2017-06-25T18:36:27.926Z,3.57
2017-06-25T18:38:55.442Z,2.80
2017-06-25T18:41:22.898Z,3.60
2017-06-25T18:43:50.398Z,4.20
2017-06-25T18:46:17.958Z,3.57
2017-06-25T18:48:45.422Z,3.10
2017-06-25T18:51:12.979Z,2.97
2017-06-25T18:53:40.494Z,2.90
2017-06-25T18:56:07.987Z,4.30
2017-06-25T18:58:35.446Z,3.10
2017-06-25T19:01:02.938Z,4.40
2017-06-25T19:03:30.466Z,4.70
2017-06-25T19:05:58.603Z,5.33
2017-06-25T19:08:26.226Z,4.10
2017-06-25T19:10:53.719Z,4.87
2017-06-25T19:13:21.214Z,4.20
2017-06-25T19:15:48.783Z,3.83
2017-06-25T19:18:17.035Z,4.73
2017-06-25T19:20:44.507Z,3.70
2017-06-25T19:23:12.067Z,4.20
2017-06-25T19:25:40.327Z,4.70
2017-06-25T19:28:07.894Z,3.83
2017-06-25T19:30:35.365Z,4.30
2017-06-25T19:33:02.822Z,3.93
2017-06-25T19:35:31.058Z,4.00
2017-06-25T19:37:58.523Z,3.77
2017-06-25T19:40:25.983Z,3.90
2017-06-25T19:42:53.739Z,3.93
2017-06-25T19:45:24.674Z,3.73
2017-06-25T19:47:52.326Z,3.33
2017-06-25T19:50:21.939Z,4.10
2017-06-25T19:52:51.310Z,4.10
2017-06-25T19:55:18.826Z,3.53
2017-06-25T19:57:46.409Z,4.50
2017-06-25T20:00:13.977Z,3.97
2017-06-25T20:02:41.434Z,4.37
2017-06-25T20:05:08.950Z,3.77
2017-06-25T20:07:36.410Z,4.50
2017-06-25T20:10:03.971Z,3.87
2017-06-25T20:12:31.502Z,5.30
2017-06-25T20:14:58.995Z,4.40
2017-06-25T20:17:27.262Z,4.30
2017-06-25T20:19:54.835Z,4.80
2017-06-25T20:22:23.070Z,4.17
2017-06-25T20:24:50.660Z,4.63
2017-06-25T20:27:18.222Z,3.70
2017-06-25T20:29:46.462Z,3.80
2017-06-25T20:32:13.953Z,4.80
2017-06-25T20:34:41.459Z,4.83
2017-06-25T20:37:08.922Z,4.67
2017-06-25T20:39:36.396Z,4.73
2017-06-25T20:42:03.879Z,3.73
2017-06-25T20:44:32.154Z,5.40
2017-06-25T20:47:00.522Z,3.90
2017-06-25T20:49:27.982Z,3.60
2017-06-25T20:51:55.458Z,4.10
2017-06-25T20:54:23.752Z,3.90
2017-06-25T20:56:51.238Z,4.47
2017-06-25T20:59:18.711Z,4.20
2017-06-25T21:01:46.209Z,4.03
2017-06-25T21:04:14.553Z,5.10
2017-06-25T21:06:42.053Z,4.37
2017-06-25T21:09:09.574Z,3.63
2017-06-25T21:11:37.043Z,3.27
2017-06-25T21:14:05.431Z,3.80
2017-06-25T21:16:33.670Z,3.70
2017-06-25T21:19:01.151Z,3.87
2017-06-25T21:21:28.629Z,4.50
2017-06-25T21:23:56.090Z,4.40
2017-06-25T21:26:23.615Z,4.40
2017-06-25T21:28:51.177Z,4.27
2017-06-25T21:31:18.658Z,4.70
2017-06-25T21:33:46.198Z,4.50
2017-06-25T21:36:14.458Z,4.67
2017-06-25T21:38:41.933Z,4.90
2017-06-25T21:41:10.207Z,4.43
2017-06-25T21:43:38.454Z,4.30
2017-06-25T21:46:05.914Z,4.80
2017-06-25T21:48:33.397Z,4.90
2017-06-25T21:51:01.650Z,4.60
2017-06-25T21:53:29.136Z,5.77
2017-06-25T21:55:57.407Z,4.80
2017-06-25T21:58:26.666Z,4.73
2017-06-25T22:00:54.142Z,4.40
2017-06-25T22:03:21.602Z,5.63
2017-06-25T22:05:49.078Z,5.97
2017-06-25T22:08:17.351Z,4.97
2017-06-25T22:10:44.890Z,4.93
2017-06-25T22:13:12.374Z,5.70
2017-06-25T22:15:40.646Z,5.83
2017-06-25T22:18:08.918Z,5.70
2017-06-25T22:20:37.211Z,5.83
2017-06-25T22:23:04.748Z,6.23
2017-06-25T22:25:32.973Z,5.50
2017-06-25T22:28:01.462Z,5.57
2017-06-25T22:30:28.950Z,6.67
2017-06-25T22:32:56.419Z,7.40
2017-06-25T22:35:24.669Z,6.60
2017-06-25T22:37:52.124Z,6.67
2017-06-25T22:40:19.578Z,5.80
2017-06-25T22:42:47.153Z,5.77
2017-06-25T22:45:14.606Z,5.93
2017-06-25T22:47:42.062Z,5.47
2017-06-25T22:50:09.545Z,5.70
2017-06-25T22:52:37.790Z,6.47
2017-06-25T22:55:05.354Z,7.30
2017-06-25T22:57:32.921Z,7.57
2017-06-25T23:00:00.371Z,7.23
2017-06-25T23:02:27.838Z,6.27
2017-06-25T23:04:56.095Z,6.67
2017-06-25T23:07:23.558Z,7.10
2017-06-25T23:09:51.120Z,6.80
2017-06-25T23:12:18.678Z,5.80
2017-06-25T23:14:47.026Z,6.77
2017-06-25T23:17:14.498Z,5.63
2017-06-25T23:19:42.075Z,6.50
2017-06-25T23:22:09.638Z,6.43
2017-06-25T23:24:37.911Z,5.87
2017-06-25T23:27:05.389Z,6.77
2017-06-25T23:29:33.611Z,6.27
2017-06-25T23:32:01.083Z,5.93
2017-06-25T23:34:28.554Z,7.40
2017-06-25T23:36:56.823Z,6.30
2017-06-25T23:39:25.302Z,5.70
2017-06-25T23:41:52.867Z,5.13
2017-06-25T23:44:20.434Z,5.97
2017-06-25T23:46:48.718Z,6.93
2017-06-25T23:49:16.962Z,5.63
2017-06-25T23:51:44.472Z,5.50
2017-06-25T23:54:11.922Z,5.57
2017-06-25T23:56:39.388Z,6.37
2017-06-25T23:59:06.903Z,5.80
